sensor_id;sensor_type;location;lat;lon;timestamp;pressure;altitude;pressure_sealevel;temperature
9985;BMP180;16737;50.932;6.780;2023-04-25T00:00:08;99628.00;;;11.90
9985;BMP180;16737;50.932;6.780;2023-04-25T00:02:36;99642.00;;;11.90
9985;BMP180;16737;50.932;6.780;2023-04-25T00:05:03;99641.00;;;11.90
9985;BMP180;16737;50.932;6.780;2023-04-25T00:07:30;99656.00;;;11.80
9985;BMP180;16737;50.932;6.780;2023-04-25T00:09:58;99651.00;;;11.80
9985;BMP180;16737;50.932;6.780;2023-04-25T00:12:26;99652.00;;;11.80
9985;BMP180;16737;50.932;6.780;2023-04-25T00:14:55;99656.00;;;11.80
9985;BMP180;16737;50.932;6.780;2023-04-25T00:17:24;99655.00;;;11.80
9985;BMP180;16737;50.932;6.780;2023-04-25T00:19:54;99655.00;;;11.80
9985;BMP180;16737;50.932;6.780;2023-04-25T00:22:22;99654.00;;;11.70
9985;BMP180;16737;50.932;6.780;2023-04-25T00:24:49;99666.00;;;11.70
9985;BMP180;16737;50.932;6.780;2023-04-25T00:27:16;99655.00;;;11.70
9985;BMP180;16737;50.932;6.780;2023-04-25T00:29:44;99651.00;;;11.70
9985;BMP180;16737;50.932;6.780;2023-04-25T00:32:12;99667.00;;;11.70
9985;BMP180;16737;50.932;6.780;2023-04-25T00:34:40;99669.00;;;11.60
9985;BMP180;16737;50.932;6.780;2023-04-25T00:37:10;99666.00;;;11.60
9985;BMP180;16737;50.932;6.780;2023-04-25T00:39:37;99662.00;;;11.60
9985;BMP180;16737;50.932;6.780;2023-04-25T00:42:05;99652.00;;;11.60
9985;BMP180;16737;50.932;6.780;2023-04-25T00:44:32;99653.00;;;11.50
9985;BMP180;16737;50.932;6.780;2023-04-25T00:47:02;99650.00;;;11.50
9985;BMP180;16737;50.932;6.780;2023-04-25T00:49:31;99645.00;;;11.50
9985;BMP180;16737;50.932;6.780;2023-04-25T00:51:58;99643.00;;;11.50
9985;BMP180;16737;50.932;6.780;2023-04-25T00:54:25;99637.00;;;11.40
9985;BMP180;16737;50.932;6.780;2023-04-25T00:56:53;99640.00;;;11.40
9985;BMP180;16737;50.932;6.780;2023-04-25T00:59:21;99641.00;;;11.30
9985;BMP180;16737;50.932;6.780;2023-04-25T01:01:48;99639.00;;;11.30
9985;BMP180;16737;50.932;6.780;2023-04-25T01:04:16;99638.00;;;11.30
9985;BMP180;16737;50.932;6.780;2023-04-25T01:06:45;99647.00;;;11.20
9985;BMP180;16737;50.932;6.780;2023-04-25T01:09:13;99653.00;;;11.20
9985;BMP180;16737;50.932;6.780;2023-04-25T01:11:40;99656.00;;;11.20
9985;BMP180;16737;50.932;6.780;2023-04-25T01:14:07;99647.00;;;11.20
9985;BMP180;16737;50.932;6.780;2023-04-25T01:16:35;99648.00;;;11.10
9985;BMP180;16737;50.932;6.780;2023-04-25T01:19:06;99645.00;;;11.10
9985;BMP180;16737;50.932;6.780;2023-04-25T01:21:37;99643.00;;;11.10
9985;BMP180;16737;50.932;6.780;2023-04-25T01:24:05;99636.00;;;11.10
9985;BMP180;16737;50.932;6.780;2023-04-25T01:26:33;99641.00;;;11.00
9985;BMP180;16737;50.932;6.780;2023-04-25T01:29:01;99637.00;;;11.00
9985;BMP180;16737;50.932;6.780;2023-04-25T01:31:28;99647.00;;;11.00
9985;BMP180;16737;50.932;6.780;2023-04-25T01:33:57;99652.00;;;10.90
9985;BMP180;16737;50.932;6.780;2023-04-25T01:36:24;99657.00;;;10.90
9985;BMP180;16737;50.932;6.780;2023-04-25T01:38:54;99654.00;;;10.90
9985;BMP180;16737;50.932;6.780;2023-04-25T01:41:22;99659.00;;;10.90
9985;BMP180;16737;50.932;6.780;2023-04-25T01:43:50;99670.00;;;10.90
9985;BMP180;16737;50.932;6.780;2023-04-25T01:46:17;99668.00;;;10.90
9985;BMP180;16737;50.932;6.780;2023-04-25T01:48:45;99674.00;;;10.90
9985;BMP180;16737;50.932;6.780;2023-04-25T01:51:12;99674.00;;;10.90
9985;BMP180;16737;50.932;6.780;2023-04-25T01:53:41;99668.00;;;10.90
9985;BMP180;16737;50.932;6.780;2023-04-25T01:56:10;99670.00;;;10.90
9985;BMP180;16737;50.932;6.780;2023-04-25T01:58:38;99660.00;;;10.90
9985;BMP180;16737;50.932;6.780;2023-04-25T02:01:05;99663.00;;;10.90
9985;BMP180;16737;50.932;6.780;2023-04-25T02:03:33;99667.00;;;11.00
9985;BMP180;16737;50.932;6.780;2023-04-25T02:06:01;99662.00;;;11.00
9985;BMP180;16737;50.932;6.780;2023-04-25T02:08:28;99665.00;;;11.00
9985;BMP180;16737;50.932;6.780;2023-04-25T02:10:57;99673.00;;;11.00
9985;BMP180;16737;50.932;6.780;2023-04-25T02:13:26;99669.00;;;11.00
9985;BMP180;16737;50.932;6.780;2023-04-25T02:15:53;99668.00;;;11.00
9985;BMP180;16737;50.932;6.780;2023-04-25T02:18:20;99672.00;;;11.00
9985;BMP180;16737;50.932;6.780;2023-04-25T02:20:48;99671.00;;;11.00
9985;BMP180;16737;50.932;6.780;2023-04-25T02:23:15;99657.00;;;11.00
9985;BMP180;16737;50.932;6.780;2023-04-25T02:25:45;99655.00;;;11.00
9985;BMP180;16737;50.932;6.780;2023-04-25T02:28:12;99669.00;;;11.00
9985;BMP180;16737;50.932;6.780;2023-04-25T02:30:41;99668.00;;;11.00
9985;BMP180;16737;50.932;6.780;2023-04-25T02:33:08;99672.00;;;11.00
9985;BMP180;16737;50.932;6.780;2023-04-25T02:35:36;99659.00;;;11.00
9985;BMP180;16737;50.932;6.780;2023-04-25T02:38:03;99659.00;;;11.00
9985;BMP180;16737;50.932;6.780;2023-04-25T02:40:31;99664.00;;;11.00
9985;BMP180;16737;50.932;6.780;2023-04-25T02:42:58;99660.00;;;11.00
9985;BMP180;16737;50.932;6.780;2023-04-25T02:45:25;99670.00;;;11.00
9985;BMP180;16737;50.932;6.780;2023-04-25T02:47:54;99665.00;;;11.00
9985;BMP180;16737;50.932;6.780;2023-04-25T02:50:22;99668.00;;;11.00
9985;BMP180;16737;50.932;6.780;2023-04-25T02:52:49;99671.00;;;11.00
9985;BMP180;16737;50.932;6.780;2023-04-25T02:55:17;99661.00;;;11.00
9985;BMP180;16737;50.932;6.780;2023-04-25T02:57:44;99659.00;;;11.00
9985;BMP180;16737;50.932;6.780;2023-04-25T03:00:12;99663.00;;;11.00
9985;BMP180;16737;50.932;6.780;2023-04-25T03:02:40;99658.00;;;11.00
9985;BMP180;16737;50.932;6.780;2023-04-25T03:05:09;99664.00;;;11.00
9985;BMP180;16737;50.932;6.780;2023-04-25T03:07:36;99652.00;;;11.00
9985;BMP180;16737;50.932;6.780;2023-04-25T03:10:06;99666.00;;;11.00
9985;BMP180;16737;50.932;6.780;2023-04-25T03:12:33;99663.00;;;11.00
9985;BMP180;16737;50.932;6.780;2023-04-25T03:15:01;99668.00;;;11.10
9985;BMP180;16737;50.932;6.780;2023-04-25T03:17:28;99672.00;;;11.10
9985;BMP180;16737;50.932;6.780;2023-04-25T03:19:57;99669.00;;;11.10
9985;BMP180;16737;50.932;6.780;2023-04-25T03:22:26;99673.00;;;11.10
9985;BMP180;16737;50.932;6.780;2023-04-25T03:24:53;99668.00;;;11.10
9985;BMP180;16737;50.932;6.780;2023-04-25T03:27:20;99675.00;;;11.10
9985;BMP180;16737;50.932;6.780;2023-04-25T03:29:47;99655.00;;;11.10
9985;BMP180;16737;50.932;6.780;2023-04-25T03:32:14;99677.00;;;11.10
9985;BMP180;16737;50.932;6.780;2023-04-25T03:34:41;99671.00;;;11.10
9985;BMP180;16737;50.932;6.780;2023-04-25T03:37:08;99675.00;;;11.10
9985;BMP180;16737;50.932;6.780;2023-04-25T03:39:36;99664.00;;;11.10
9985;BMP180;16737;50.932;6.780;2023-04-25T03:42:04;99668.00;;;11.10
9985;BMP180;16737;50.932;6.780;2023-04-25T03:44:31;99675.00;;;11.10
9985;BMP180;16737;50.932;6.780;2023-04-25T03:46:58;99678.00;;;11.10
9985;BMP180;16737;50.932;6.780;2023-04-25T03:49:25;99689.00;;;11.10
9985;BMP180;16737;50.932;6.780;2023-04-25T03:51:51;99689.00;;;11.10
9985;BMP180;16737;50.932;6.780;2023-04-25T03:54:18;99688.00;;;11.10
9985;BMP180;16737;50.932;6.780;2023-04-25T03:56:47;99686.00;;;11.10
9985;BMP180;16737;50.932;6.780;2023-04-25T03:59:14;99691.00;;;11.10
9985;BMP180;16737;50.932;6.780;2023-04-25T04:01:41;99690.00;;;11.10
9985;BMP180;16737;50.932;6.780;2023-04-25T04:04:08;99684.00;;;11.10
9985;BMP180;16737;50.932;6.780;2023-04-25T04:06:35;99696.00;;;11.00
9985;BMP180;16737;50.932;6.780;2023-04-25T04:09:03;99698.00;;;11.00
9985;BMP180;16737;50.932;6.780;2023-04-25T04:11:29;99703.00;;;11.10
9985;BMP180;16737;50.932;6.780;2023-04-25T04:13:59;99703.00;;;11.10
9985;BMP180;16737;50.932;6.780;2023-04-25T04:16:26;99705.00;;;11.10
9985;BMP180;16737;50.932;6.780;2023-04-25T04:18:53;99706.00;;;11.10
9985;BMP180;16737;50.932;6.780;2023-04-25T04:21:20;99705.00;;;11.00
9985;BMP180;16737;50.932;6.780;2023-04-25T04:23:47;99704.00;;;11.00
9985;BMP180;16737;50.932;6.780;2023-04-25T04:26:14;99709.00;;;11.00
9985;BMP180;16737;50.932;6.780;2023-04-25T04:28:43;99697.00;;;11.00
9985;BMP180;16737;50.932;6.780;2023-04-25T04:31:11;99713.00;;;11.00
9985;BMP180;16737;50.932;6.780;2023-04-25T04:33:41;99710.00;;;11.00
9985;BMP180;16737;50.932;6.780;2023-04-25T04:36:08;99725.00;;;11.00
9985;BMP180;16737;50.932;6.780;2023-04-25T04:38:35;99718.00;;;11.00
9985;BMP180;16737;50.932;6.780;2023-04-25T04:41:03;99720.00;;;11.00
9985;BMP180;16737;50.932;6.780;2023-04-25T04:43:30;99730.00;;;11.00
9985;BMP180;16737;50.932;6.780;2023-04-25T04:46:00;99730.00;;;10.90
9985;BMP180;16737;50.932;6.780;2023-04-25T04:48:28;99729.00;;;10.90
9985;BMP180;16737;50.932;6.780;2023-04-25T04:50:58;99730.00;;;10.90
9985;BMP180;16737;50.932;6.780;2023-04-25T04:53:28;99740.00;;;10.90
9985;BMP180;16737;50.932;6.780;2023-04-25T04:55:55;99737.00;;;10.90
9985;BMP180;16737;50.932;6.780;2023-04-25T04:58:22;99737.00;;;10.90
9985;BMP180;16737;50.932;6.780;2023-04-25T05:00:49;99750.00;;;10.90
9985;BMP180;16737;50.932;6.780;2023-04-25T05:03:16;99735.00;;;10.90
9985;BMP180;16737;50.932;6.780;2023-04-25T05:05:44;99763.00;;;10.90
9985;BMP180;16737;50.932;6.780;2023-04-25T05:08:11;99756.00;;;10.90
9985;BMP180;16737;50.932;6.780;2023-04-25T05:10:38;99757.00;;;10.90
9985;BMP180;16737;50.932;6.780;2023-04-25T05:13:05;99746.00;;;10.90
9985;BMP180;16737;50.932;6.780;2023-04-25T05:15:32;99759.00;;;10.90
9985;BMP180;16737;50.932;6.780;2023-04-25T05:17:59;99768.00;;;11.00
9985;BMP180;16737;50.932;6.780;2023-04-25T05:20:27;99762.00;;;11.00
9985;BMP180;16737;50.932;6.780;2023-04-25T05:22:57;99767.00;;;11.00
9985;BMP180;16737;50.932;6.780;2023-04-25T05:25:25;99778.00;;;10.80
9985;BMP180;16737;50.932;6.780;2023-04-25T05:27:53;99779.00;;;11.00
9985;BMP180;16737;50.932;6.780;2023-04-25T05:30:20;99775.00;;;11.10
9985;BMP180;16737;50.932;6.780;2023-04-25T05:32:47;99780.00;;;11.10
9985;BMP180;16737;50.932;6.780;2023-04-25T05:35:14;99783.00;;;11.10
9985;BMP180;16737;50.932;6.780;2023-04-25T05:37:41;99782.00;;;11.10
9985;BMP180;16737;50.932;6.780;2023-04-25T05:40:10;99780.00;;;11.20
9985;BMP180;16737;50.932;6.780;2023-04-25T05:42:37;99790.00;;;11.20
9985;BMP180;16737;50.932;6.780;2023-04-25T05:45:05;99790.00;;;11.20
9985;BMP180;16737;50.932;6.780;2023-04-25T05:47:32;99786.00;;;11.20
9985;BMP180;16737;50.932;6.780;2023-04-25T05:49:59;99800.00;;;11.30
9985;BMP180;16737;50.932;6.780;2023-04-25T05:52:26;99803.00;;;11.30
9985;BMP180;16737;50.932;6.780;2023-04-25T05:54:53;99800.00;;;11.30
9985;BMP180;16737;50.932;6.780;2023-04-25T05:57:24;99800.00;;;11.40
9985;BMP180;16737;50.932;6.780;2023-04-25T05:59:51;99801.00;;;11.40
9985;BMP180;16737;50.932;6.780;2023-04-25T06:02:19;99808.00;;;11.50
9985;BMP180;16737;50.932;6.780;2023-04-25T06:04:47;99794.00;;;11.50
9985;BMP180;16737;50.932;6.780;2023-04-25T06:07:14;99820.00;;;11.60
9985;BMP180;16737;50.932;6.780;2023-04-25T06:09:41;99810.00;;;11.60
9985;BMP180;16737;50.932;6.780;2023-04-25T06:12:08;99820.00;;;11.70
9985;BMP180;16737;50.932;6.780;2023-04-25T06:14:36;99811.00;;;11.70
9985;BMP180;16737;50.932;6.780;2023-04-25T06:17:04;99827.00;;;11.80
9985;BMP180;16737;50.932;6.780;2023-04-25T06:19:34;99825.00;;;11.80
9985;BMP180;16737;50.932;6.780;2023-04-25T06:22:02;99829.00;;;11.90
9985;BMP180;16737;50.932;6.780;2023-04-25T06:24:29;99838.00;;;11.90
9985;BMP180;16737;50.932;6.780;2023-04-25T06:26:56;99832.00;;;12.00
9985;BMP180;16737;50.932;6.780;2023-04-25T06:29:23;99829.00;;;12.00
9985;BMP180;16737;50.932;6.780;2023-04-25T06:31:51;99834.00;;;12.10
9985;BMP180;16737;50.932;6.780;2023-04-25T06:34:18;99836.00;;;12.10
9985;BMP180;16737;50.932;6.780;2023-04-25T06:36:45;99837.00;;;12.10
9985;BMP180;16737;50.932;6.780;2023-04-25T06:39:12;99831.00;;;12.20
9985;BMP180;16737;50.932;6.780;2023-04-25T06:41:39;99835.00;;;12.20
9985;BMP180;16737;50.932;6.780;2023-04-25T06:44:06;99837.00;;;12.20
9985;BMP180;16737;50.932;6.780;2023-04-25T06:46:33;99848.00;;;12.30
9985;BMP180;16737;50.932;6.780;2023-04-25T06:49:01;99847.00;;;12.30
9985;BMP180;16737;50.932;6.780;2023-04-25T06:51:28;99854.00;;;12.30
9985;BMP180;16737;50.932;6.780;2023-04-25T06:53:56;99839.00;;;12.40
9985;BMP180;16737;50.932;6.780;2023-04-25T06:56:23;99841.00;;;12.40
9985;BMP180;16737;50.932;6.780;2023-04-25T06:58:50;99850.00;;;12.40
9985;BMP180;16737;50.932;6.780;2023-04-25T07:01:17;99858.00;;;12.40
9985;BMP180;16737;50.932;6.780;2023-04-25T07:03:44;99866.00;;;12.50
9985;BMP180;16737;50.932;6.780;2023-04-25T07:06:12;99858.00;;;12.50
9985;BMP180;16737;50.932;6.780;2023-04-25T07:08:39;99860.00;;;12.60
9985;BMP180;16737;50.932;6.780;2023-04-25T07:11:06;99859.00;;;12.60
9985;BMP180;16737;50.932;6.780;2023-04-25T07:13:33;99868.00;;;12.60
9985;BMP180;16737;50.932;6.780;2023-04-25T07:16:00;99867.00;;;12.70
9985;BMP180;16737;50.932;6.780;2023-04-25T07:18:27;99874.00;;;12.70
9985;BMP180;16737;50.932;6.780;2023-04-25T07:20:54;99883.00;;;12.80
9985;BMP180;16737;50.932;6.780;2023-04-25T07:23:22;99878.00;;;12.80
9985;BMP180;16737;50.932;6.780;2023-04-25T07:25:49;99888.00;;;12.90
9985;BMP180;16737;50.932;6.780;2023-04-25T07:28:16;99901.00;;;12.90
9985;BMP180;16737;50.932;6.780;2023-04-25T07:30:44;99889.00;;;13.00
9985;BMP180;16737;50.932;6.780;2023-04-25T07:33:10;99895.00;;;13.00
9985;BMP180;16737;50.932;6.780;2023-04-25T07:35:37;99892.00;;;13.00
9985;BMP180;16737;50.932;6.780;2023-04-25T07:38:04;99886.00;;;13.00
9985;BMP180;16737;50.932;6.780;2023-04-25T07:40:33;99892.00;;;13.00
9985;BMP180;16737;50.932;6.780;2023-04-25T07:43:00;99895.00;;;13.00
9985;BMP180;16737;50.932;6.780;2023-04-25T07:45:28;99900.00;;;13.00
9985;BMP180;16737;50.932;6.780;2023-04-25T07:47:55;99899.00;;;13.00
9985;BMP180;16737;50.932;6.780;2023-04-25T07:50:22;99898.00;;;13.00
9985;BMP180;16737;50.932;6.780;2023-04-25T07:52:49;99908.00;;;13.00
9985;BMP180;16737;50.932;6.780;2023-04-25T07:55:16;99909.00;;;13.00
9985;BMP180;16737;50.932;6.780;2023-04-25T07:57:44;99919.00;;;13.00
9985;BMP180;16737;50.932;6.780;2023-04-25T08:00:13;99927.00;;;13.00
9985;BMP180;16737;50.932;6.780;2023-04-25T08:02:40;99918.00;;;13.00
9985;BMP180;16737;50.932;6.780;2023-04-25T08:05:08;99922.00;;;13.00
9985;BMP180;16737;50.932;6.780;2023-04-25T08:07:37;99923.00;;;13.10
9985;BMP180;16737;50.932;6.780;2023-04-25T08:10:06;99929.00;;;13.10
9985;BMP180;16737;50.932;6.780;2023-04-25T08:12:33;99934.00;;;13.20
9985;BMP180;16737;50.932;6.780;2023-04-25T08:15:03;99934.00;;;13.20
9985;BMP180;16737;50.932;6.780;2023-04-25T08:17:30;99947.00;;;13.20
9985;BMP180;16737;50.932;6.780;2023-04-25T08:19:57;99944.00;;;13.30
9985;BMP180;16737;50.932;6.780;2023-04-25T08:22:24;99957.00;;;13.30
9985;BMP180;16737;50.932;6.780;2023-04-25T08:24:51;99951.00;;;13.40
9985;BMP180;16737;50.932;6.780;2023-04-25T08:27:18;99959.00;;;13.40
9985;BMP180;16737;50.932;6.780;2023-04-25T08:29:46;99959.00;;;13.50
9985;BMP180;16737;50.932;6.780;2023-04-25T08:32:16;99969.00;;;13.50
9985;BMP180;16737;50.932;6.780;2023-04-25T08:34:43;99968.00;;;13.60
9985;BMP180;16737;50.932;6.780;2023-04-25T08:37:10;99980.00;;;13.60
9985;BMP180;16737;50.932;6.780;2023-04-25T08:39:37;99984.00;;;13.60
9985;BMP180;16737;50.932;6.780;2023-04-25T08:42:06;99986.00;;;13.60
9985;BMP180;16737;50.932;6.780;2023-04-25T08:44:34;99969.00;;;13.60
9985;BMP180;16737;50.932;6.780;2023-04-25T08:47:03;99996.00;;;13.60
9985;BMP180;16737;50.932;6.780;2023-04-25T08:49:33;99994.00;;;13.60
9985;BMP180;16737;50.932;6.780;2023-04-25T08:52:02;99995.00;;;13.60
9985;BMP180;16737;50.932;6.780;2023-04-25T08:54:32;99992.00;;;13.60
9985;BMP180;16737;50.932;6.780;2023-04-25T08:57:02;100000.00;;;13.60
9985;BMP180;16737;50.932;6.780;2023-04-25T08:59:30;100006.00;;;13.60
9985;BMP180;16737;50.932;6.780;2023-04-25T09:01:57;100003.00;;;13.60
9985;BMP180;16737;50.932;6.780;2023-04-25T09:04:24;100011.00;;;13.50
9985;BMP180;16737;50.932;6.780;2023-04-25T09:06:53;100014.00;;;13.60
9985;BMP180;16737;50.932;6.780;2023-04-25T09:09:20;100025.00;;;13.50
9985;BMP180;16737;50.932;6.780;2023-04-25T09:11:49;100020.00;;;13.60
9985;BMP180;16737;50.932;6.780;2023-04-25T09:14:18;100026.00;;;13.60
9985;BMP180;16737;50.932;6.780;2023-04-25T09:17:01;100025.00;;;13.60
9985;BMP180;16737;50.932;6.780;2023-04-25T09:19:29;100027.00;;;13.60
9985;BMP180;16737;50.932;6.780;2023-04-25T09:22:00;100032.00;;;13.60
9985;BMP180;16737;50.932;6.780;2023-04-25T09:24:37;100051.00;;;13.60
9985;BMP180;16737;50.932;6.780;2023-04-25T09:27:05;100042.00;;;13.60
9985;BMP180;16737;50.932;6.780;2023-04-25T09:29:34;100048.00;;;13.60
9985;BMP180;16737;50.932;6.780;2023-04-25T09:32:15;100050.00;;;13.60
9985;BMP180;16737;50.932;6.780;2023-04-25T09:34:44;100049.00;;;13.60
9985;BMP180;16737;50.932;6.780;2023-04-25T09:37:18;100045.00;;;13.60
9985;BMP180;16737;50.932;6.780;2023-04-25T09:39:47;100039.00;;;13.60
9985;BMP180;16737;50.932;6.780;2023-04-25T09:42:15;100050.00;;;13.60
9985;BMP180;16737;50.932;6.780;2023-04-25T09:44:44;100035.00;;;13.50
9985;BMP180;16737;50.932;6.780;2023-04-25T09:47:12;100063.00;;;13.50
9985;BMP180;16737;50.932;6.780;2023-04-25T09:49:42;100049.00;;;13.50
9985;BMP180;16737;50.932;6.780;2023-04-25T09:52:15;100046.00;;;13.50
9985;BMP180;16737;50.932;6.780;2023-04-25T09:54:43;100050.00;;;13.50
9985;BMP180;16737;50.932;6.780;2023-04-25T09:57:13;100061.00;;;13.50
9985;BMP180;16737;50.932;6.780;2023-04-25T09:59:44;100059.00;;;13.50
9985;BMP180;16737;50.932;6.780;2023-04-25T10:02:13;100069.00;;;13.60
9985;BMP180;16737;50.932;6.780;2023-04-25T10:04:41;100062.00;;;13.60
9985;BMP180;16737;50.932;6.780;2023-04-25T10:07:09;100077.00;;;13.60
9985;BMP180;16737;50.932;6.780;2023-04-25T10:09:39;100085.00;;;13.60
9985;BMP180;16737;50.932;6.780;2023-04-25T10:12:07;100056.00;;;13.60
9985;BMP180;16737;50.932;6.780;2023-04-25T10:14:35;100087.00;;;13.60
9985;BMP180;16737;50.932;6.780;2023-04-25T10:17:04;100086.00;;;13.60
9985;BMP180;16737;50.932;6.780;2023-04-25T10:19:32;100089.00;;;13.60
9985;BMP180;16737;50.932;6.780;2023-04-25T10:22:07;100090.00;;;13.50
9985;BMP180;16737;50.932;6.780;2023-04-25T10:24:35;100087.00;;;13.50
9985;BMP180;16737;50.932;6.780;2023-04-25T10:27:05;100080.00;;;13.50
9985;BMP180;16737;50.932;6.780;2023-04-25T10:29:32;100086.00;;;13.60
9985;BMP180;16737;50.932;6.780;2023-04-25T10:31:59;100091.00;;;13.60
9985;BMP180;16737;50.932;6.780;2023-04-25T10:34:39;100091.00;;;13.60
9985;BMP180;16737;50.932;6.780;2023-04-25T10:37:09;100083.00;;;13.60
9985;BMP180;16737;50.932;6.780;2023-04-25T10:39:41;100094.00;;;13.70
9985;BMP180;16737;50.932;6.780;2023-04-25T10:42:11;100089.00;;;13.90
9985;BMP180;16737;50.932;6.780;2023-04-25T10:44:38;100103.00;;;14.00
9985;BMP180;16737;50.932;6.780;2023-04-25T10:47:07;100100.00;;;14.00
9985;BMP180;16737;50.932;6.780;2023-04-25T10:49:36;100091.00;;;14.10
9985;BMP180;16737;50.932;6.780;2023-04-25T10:52:24;100092.00;;;14.20
9985;BMP180;16737;50.932;6.780;2023-04-25T10:54:53;100089.00;;;14.00
9985;BMP180;16737;50.932;6.780;2023-04-25T10:57:36;100098.00;;;14.20
9985;BMP180;16737;50.932;6.780;2023-04-25T11:00:13;100101.00;;;14.20
9985;BMP180;16737;50.932;6.780;2023-04-25T11:02:45;100095.00;;;14.10
9985;BMP180;16737;50.932;6.780;2023-04-25T11:05:22;100069.00;;;14.10
9985;BMP180;16737;50.932;6.780;2023-04-25T11:07:52;100104.00;;;14.00
9985;BMP180;16737;50.932;6.780;2023-04-25T11:10:20;100108.00;;;14.00
9985;BMP180;16737;50.932;6.780;2023-04-25T11:12:48;100116.00;;;14.00
9985;BMP180;16737;50.932;6.780;2023-04-25T11:15:15;100113.00;;;14.00
9985;BMP180;16737;50.932;6.780;2023-04-25T11:17:42;100116.00;;;14.00
9985;BMP180;16737;50.932;6.780;2023-04-25T11:20:12;100105.00;;;14.10
9985;BMP180;16737;50.932;6.780;2023-04-25T11:22:40;100105.00;;;14.10
9985;BMP180;16737;50.932;6.780;2023-04-25T11:25:09;100115.00;;;14.10
9985;BMP180;16737;50.932;6.780;2023-04-25T11:27:50;100107.00;;;14.10
9985;BMP180;16737;50.932;6.780;2023-04-25T11:30:20;100112.00;;;14.20
9985;BMP180;16737;50.932;6.780;2023-04-25T11:32:48;100101.00;;;14.30
9985;BMP180;16737;50.932;6.780;2023-04-25T11:35:16;100113.00;;;14.40
9985;BMP180;16737;50.932;6.780;2023-04-25T11:37:43;100098.00;;;14.50
9985;BMP180;16737;50.932;6.780;2023-04-25T11:40:12;100102.00;;;14.60
9985;BMP180;16737;50.932;6.780;2023-04-25T11:42:43;100105.00;;;14.60
9985;BMP180;16737;50.932;6.780;2023-04-25T11:45:13;100106.00;;;14.70
9985;BMP180;16737;50.932;6.780;2023-04-25T11:47:40;100103.00;;;14.80
9985;BMP180;16737;50.932;6.780;2023-04-25T11:50:09;100104.00;;;14.90
9985;BMP180;16737;50.932;6.780;2023-04-25T11:52:41;100106.00;;;14.90
9985;BMP180;16737;50.932;6.780;2023-04-25T11:55:12;100091.00;;;15.00
9985;BMP180;16737;50.932;6.780;2023-04-25T11:57:42;100087.00;;;15.10
9985;BMP180;16737;50.932;6.780;2023-04-25T12:00:14;100108.00;;;15.20
9985;BMP180;16737;50.932;6.780;2023-04-25T12:02:44;100109.00;;;15.40
9985;BMP180;16737;50.932;6.780;2023-04-25T12:05:13;100112.00;;;15.60
9985;BMP180;16737;50.932;6.780;2023-04-25T12:07:41;100108.00;;;15.70
9985;BMP180;16737;50.932;6.780;2023-04-25T12:10:11;100126.00;;;15.90
9985;BMP180;16737;50.932;6.780;2023-04-25T12:12:42;100113.00;;;15.90
9985;BMP180;16737;50.932;6.780;2023-04-25T12:15:16;100111.00;;;16.10
9985;BMP180;16737;50.932;6.780;2023-04-25T12:17:46;100127.00;;;16.30
9985;BMP180;16737;50.932;6.780;2023-04-25T12:20:15;100120.00;;;16.40
9985;BMP180;16737;50.932;6.780;2023-04-25T12:22:45;100119.00;;;16.50
9985;BMP180;16737;50.932;6.780;2023-04-25T12:25:13;100132.00;;;16.70
9985;BMP180;16737;50.932;6.780;2023-04-25T12:28:15;100123.00;;;16.80
9985;BMP180;16737;50.932;6.780;2023-04-25T12:30:58;100129.00;;;16.90
9985;BMP180;16737;50.932;6.780;2023-04-25T12:33:29;100141.00;;;17.00
9985;BMP180;16737;50.932;6.780;2023-04-25T12:35:57;100137.00;;;17.10
9985;BMP180;16737;50.932;6.780;2023-04-25T12:38:26;100131.00;;;17.00
9985;BMP180;16737;50.932;6.780;2023-04-25T12:40:58;100147.00;;;17.00
9985;BMP180;16737;50.932;6.780;2023-04-25T12:43:26;100146.00;;;16.90
9985;BMP180;16737;50.932;6.780;2023-04-25T12:45:55;100170.00;;;16.70
9985;BMP180;16737;50.932;6.780;2023-04-25T12:48:26;100166.00;;;16.60
9985;BMP180;16737;50.932;6.780;2023-04-25T12:50:55;100167.00;;;16.40
9985;BMP180;16737;50.932;6.780;2023-04-25T12:53:23;100164.00;;;16.30
9985;BMP180;16737;50.932;6.780;2023-04-25T12:55:50;100176.00;;;16.10
9985;BMP180;16737;50.932;6.780;2023-04-25T12:58:19;100162.00;;;16.00
9985;BMP180;16737;50.932;6.780;2023-04-25T13:00:47;100165.00;;;15.90
9985;BMP180;16737;50.932;6.780;2023-04-25T13:03:15;100158.00;;;15.90
9985;BMP180;16737;50.932;6.780;2023-04-25T13:05:43;100149.00;;;15.80
9985;BMP180;16737;50.932;6.780;2023-04-25T13:08:11;100159.00;;;15.70
9985;BMP180;16737;50.932;6.780;2023-04-25T13:10:38;100162.00;;;15.70
9985;BMP180;16737;50.932;6.780;2023-04-25T13:13:05;100166.00;;;15.60
9985;BMP180;16737;50.932;6.780;2023-04-25T13:15:32;100162.00;;;15.60
9985;BMP180;16737;50.932;6.780;2023-04-25T13:18:02;100174.00;;;15.50
9985;BMP180;16737;50.932;6.780;2023-04-25T13:20:31;100160.00;;;15.50
9985;BMP180;16737;50.932;6.780;2023-04-25T13:22:58;100152.00;;;15.40
9985;BMP180;16737;50.932;6.780;2023-04-25T13:25:26;100136.00;;;15.40
9985;BMP180;16737;50.932;6.780;2023-04-25T13:27:55;100147.00;;;15.30
9985;BMP180;16737;50.932;6.780;2023-04-25T13:30:22;100155.00;;;15.40
9985;BMP180;16737;50.932;6.780;2023-04-25T13:32:49;100166.00;;;15.40
9985;BMP180;16737;50.932;6.780;2023-04-25T13:35:17;100128.00;;;15.40
9985;BMP180;16737;50.932;6.780;2023-04-25T13:37:45;100155.00;;;15.50
9985;BMP180;16737;50.932;6.780;2023-04-25T13:40:12;100163.00;;;15.60
9985;BMP180;16737;50.932;6.780;2023-04-25T13:42:39;100170.00;;;15.80
9985;BMP180;16737;50.932;6.780;2023-04-25T13:45:08;100162.00;;;16.00
9985;BMP180;16737;50.932;6.780;2023-04-25T13:47:36;100158.00;;;16.10
9985;BMP180;16737;50.932;6.780;2023-04-25T13:50:03;100160.00;;;16.10
9985;BMP180;16737;50.932;6.780;2023-04-25T13:52:33;100168.00;;;16.10
9985;BMP180;16737;50.932;6.780;2023-04-25T13:55:01;100164.00;;;16.00
9985;BMP180;16737;50.932;6.780;2023-04-25T13:57:30;100162.00;;;16.10
9985;BMP180;16737;50.932;6.780;2023-04-25T13:59:57;100166.00;;;16.00
9985;BMP180;16737;50.932;6.780;2023-04-25T14:02:25;100171.00;;;16.00
9985;BMP180;16737;50.932;6.780;2023-04-25T14:04:52;100171.00;;;16.00
9985;BMP180;16737;50.932;6.780;2023-04-25T14:07:19;100168.00;;;16.00
9985;BMP180;16737;50.932;6.780;2023-04-25T14:09:46;100167.00;;;16.00
9985;BMP180;16737;50.932;6.780;2023-04-25T14:12:16;100172.00;;;15.90
9985;BMP180;16737;50.932;6.780;2023-04-25T14:14:43;100177.00;;;15.90
9985;BMP180;16737;50.932;6.780;2023-04-25T14:17:10;100177.00;;;15.90
9985;BMP180;16737;50.932;6.780;2023-04-25T14:19:37;100181.00;;;15.90
9985;BMP180;16737;50.932;6.780;2023-04-25T14:22:08;100185.00;;;15.90